Amendola, Italy

9:01 AM CEST on October 24, 2014 (GMT +0200)
Terra Apuliae | Change Station
CLOSE
Current Station
Personal Weather Station
Location: Manfredonia, FOGGIA
Elevation: 6 ft
Nearby Weather Stations
Active Advisory: Wind

Elev 6 ft 41.51 °N, 15.87 °E | Updated 4 minutes ago

Rain
Rain
51.4 °F
Feels Like 51.4 °F
N
6.2
Wind Variable Wind from West
Gusts 6.2 mph

Today
High -- | Low -- °F
--% Chance of Precip.
Yesterday
High -- | Low -- °F
Precip. -- in
7:19 AM 6:02 PM
New Moon, 0% visible
Pressure 29.77 in
Visibility 5.0 miles
Clouds Few 2000 ft
Scattered Clouds 3000 ft
Dew Point 51 °F
Humidity 99%
Rainfall 0.05 in
Snow Depth Not available.
UV 1 out of 12
Pollen Not available.
Air Quality Not available.
Flu Activity Not available.
METAR LIBD 240650Z VRB04KT 8000 2500S RA FEW020 SCT030 10/08 Q1008

More Conditions Fewer Conditions

Pressure 29.77 in
Visibility 5.0 miles
Clouds Few 2000 ft
Scattered Clouds 3000 ft
Dew Point 51 °F
Humidity 99%
Rainfall 0.05 in
Snow Depth Not available.
UV 1 out of 12
Pollen Not available.
Air Quality Not available.
Flu Activity Not available.
METAR LIBD 240650Z VRB04KT 8000 2500S RA FEW020 SCT030 10/08 Q1008

More Conditions Fewer Conditions

10-Day Weather Forecast

Almanac

Astronomy

Oct. 24, 2014 Rise Set
Actual Time 7:19 AM CEST 6:02 PM CEST
Civil Twilight 6:50 AM CEST 6:31 PM CEST
Nautical Twilight 6:18 AM CEST 7:03 PM CEST
Astronomical Twilight 5:46 AM CEST 7:35 PM CEST
Moon 7:40 AM CEST 6:30 PM CEST
Length of Visible Light 11h 40m
Length of Day
10h 43m
Tomorrow will be 2m 34s shorter.
New Moon, 0% of the Moon is Illuminated
Today
New Moon
Oct 30
First Quarter
Nov 6
Full
Nov 14
Last Quarter
Nov 22
New

Yesterday's Extremes

Country Highs Country Lows

Community

WunderPhotos

Upload Photos

1,764,510 photos uploaded!

WunderBlogs® & News

Nearby

Snow Depth

Not available.

Earthquake Activity

City Distance Mag. Time & Date
No recent earthquake activity has been reported nearby.
Minimum magnitude displayed is 2.5.

Coastal Water Temperatures

Place Temperature
No Stations Reporting

Nearby Weather Stations